createdAt,value
2022-09-24T00:01:36.586Z,14.60
2022-09-24T00:04:10.503Z,14.60
2022-09-24T00:06:43.196Z,14.60
2022-09-24T00:09:11.862Z,14.60
2022-09-24T00:11:39.599Z,14.60
2022-09-24T00:14:07.464Z,14.60
2022-09-24T00:16:35.004Z,14.60
2022-09-24T00:19:03.548Z,14.60
2022-09-24T00:21:33.394Z,14.60
2022-09-24T00:24:02.798Z,14.60
2022-09-24T00:26:48.780Z,14.60
2022-09-24T00:29:21.664Z,14.60
2022-09-24T00:31:49.456Z,14.60
2022-09-24T00:34:17.009Z,14.60
2022-09-24T00:36:46.998Z,14.50
2022-09-24T00:39:14.523Z,14.60
2022-09-24T00:41:44.945Z,14.50
2022-09-24T00:44:45.924Z,14.50
2022-09-24T00:47:23.325Z,14.50
2022-09-24T00:49:51.310Z,14.50
2022-09-24T00:52:19.644Z,14.50
2022-09-24T00:54:47.175Z,14.50
2022-09-24T00:57:14.733Z,14.50
2022-09-24T00:59:44.017Z,14.40
2022-09-24T01:02:11.359Z,14.50
2022-09-24T01:04:38.518Z,14.50
2022-09-24T01:07:05.433Z,14.40
2022-09-24T01:09:32.820Z,14.50
2022-09-24T01:12:14.673Z,14.40
2022-09-24T01:14:53.733Z,14.40
2022-09-24T01:17:26.512Z,14.40
2022-09-24T01:20:22.487Z,14.40
2022-09-24T01:22:58.026Z,14.40
2022-09-24T01:25:39.667Z,14.40
2022-09-24T01:28:26.803Z,14.40
2022-09-24T01:31:01.140Z,14.40
2022-09-24T01:33:30.749Z,14.40
2022-09-24T01:36:01.484Z,14.40
2022-09-24T01:38:35.345Z,14.40
2022-09-24T01:41:03.601Z,14.40
2022-09-24T01:43:30.948Z,14.30
2022-09-24T01:46:01.173Z,14.30
2022-09-24T01:48:30.349Z,14.40
2022-09-24T01:51:07.104Z,14.30
2022-09-24T01:54:03.679Z,14.30
2022-09-24T01:56:53.958Z,14.30
2022-09-24T01:59:40.674Z,14.30
2022-09-24T02:02:23.453Z,14.30
2022-09-24T02:04:56.689Z,14.30
2022-09-24T02:07:31.395Z,14.30
2022-09-24T02:09:58.370Z,14.30
2022-09-24T02:12:39.993Z,14.20
2022-09-24T02:15:11.503Z,14.20
2022-09-24T02:17:42.920Z,14.20
2022-09-24T02:20:17.420Z,14.20
2022-09-24T02:22:46.152Z,14.20
2022-09-24T02:25:17.164Z,14.20
2022-09-24T02:27:44.339Z,14.20
2022-09-24T02:30:11.696Z,14.20
2022-09-24T02:32:42.115Z,14.20
2022-09-24T02:35:11.580Z,14.20
2022-09-24T02:37:43.347Z,14.20
2022-09-24T02:40:14.267Z,14.20
2022-09-24T02:42:42.423Z,14.20
2022-09-24T02:45:10.481Z,14.10
2022-09-24T02:47:37.695Z,14.10
2022-09-24T02:50:05.092Z,14.20
2022-09-24T02:52:32.039Z,14.10
2022-09-24T02:54:59.032Z,14.20
2022-09-24T02:57:26.010Z,14.20
2022-09-24T02:59:52.960Z,14.10
2022-09-24T03:02:20.075Z,14.10
2022-09-24T03:04:47.206Z,14.10
2022-09-24T03:07:14.819Z,14.10
2022-09-24T03:09:41.781Z,14.10
2022-09-24T03:12:08.857Z,14.10
2022-09-24T03:14:35.794Z,14.10
2022-09-24T03:17:02.811Z,14.10
2022-09-24T03:19:29.699Z,14.10
2022-09-24T03:21:56.755Z,14.10
2022-09-24T03:24:23.771Z,14.10
2022-09-24T03:26:50.778Z,14.10
2022-09-24T03:29:37.675Z,14.10
2022-09-24T03:32:04.661Z,14.10
2022-09-24T03:34:31.588Z,14.10
2022-09-24T03:36:58.583Z,14.10
2022-09-24T03:39:25.483Z,14.10
2022-09-24T03:41:52.460Z,14.00
2022-09-24T03:44:19.411Z,14.10
2022-09-24T03:46:47.116Z,14.00
2022-09-24T03:49:14.043Z,14.00
2022-09-24T03:51:41.080Z,14.10
2022-09-24T03:54:08.294Z,14.00
2022-09-24T03:56:35.267Z,14.10
2022-09-24T03:59:02.199Z,14.00
2022-09-24T04:01:32.506Z,14.00
2022-09-24T04:04:00.464Z,14.00
2022-09-24T04:06:27.434Z,14.00
2022-09-24T04:08:54.537Z,14.00
2022-09-24T04:11:21.939Z,14.00
2022-09-24T04:13:48.955Z,14.00
2022-09-24T04:16:16.302Z,14.00
2022-09-24T04:18:43.325Z,14.00
2022-09-24T04:21:10.378Z,14.00
2022-09-24T04:23:37.338Z,14.00
2022-09-24T04:26:04.424Z,14.00
2022-09-24T04:28:31.785Z,14.00
2022-09-24T04:30:59.228Z,14.00
2022-09-24T04:33:26.776Z,14.00
2022-09-24T04:35:53.875Z,13.90
2022-09-24T04:38:21.399Z,13.90
2022-09-24T04:40:49.208Z,13.90
2022-09-24T04:43:17.568Z,14.00
2022-09-24T04:45:46.439Z,13.90
2022-09-24T04:48:14.308Z,13.90
2022-09-24T04:50:45.844Z,13.90
2022-09-24T04:53:14.236Z,13.90
2022-09-24T04:55:41.843Z,13.90
2022-09-24T04:58:09.579Z,13.90
2022-09-24T05:00:36.745Z,13.90
2022-09-24T05:03:04.234Z,13.90
2022-09-24T05:05:32.377Z,13.90
2022-09-24T05:07:59.949Z,13.90
2022-09-24T05:10:27.468Z,13.90
2022-09-24T05:12:54.816Z,13.90
2022-09-24T05:15:22.222Z,13.90
2022-09-24T05:17:49.347Z,13.90
2022-09-24T05:20:19.745Z,13.90
2022-09-24T05:22:49.611Z,13.90
2022-09-24T05:25:19.306Z,13.90
2022-09-24T05:27:56.083Z,13.90
2022-09-24T05:30:25.018Z,13.90
2022-09-24T05:32:52.915Z,13.90
2022-09-24T05:35:21.307Z,13.90
2022-09-24T05:37:49.716Z,13.90
2022-09-24T05:40:35.800Z,13.90
2022-09-24T05:43:03.847Z,13.90
2022-09-24T05:45:31.506Z,13.90
2022-09-24T05:48:00.186Z,13.90
2022-09-24T05:50:27.670Z,13.90
2022-09-24T05:52:54.991Z,13.90
2022-09-24T05:55:22.046Z,13.90
2022-09-24T05:57:49.258Z,13.90
2022-09-24T06:00:16.779Z,13.90
2022-09-24T06:02:44.071Z,13.90
2022-09-24T06:05:11.831Z,13.90
2022-09-24T06:07:39.337Z,13.90
2022-09-24T06:10:10.371Z,13.90
2022-09-24T06:12:37.321Z,13.90
2022-09-24T06:15:05.025Z,13.90
2022-09-24T06:17:32.595Z,13.90
2022-09-24T06:19:59.594Z,13.90
2022-09-24T06:22:28.751Z,13.90
2022-09-24T06:24:56.126Z,13.90
2022-09-24T06:27:23.211Z,13.90
2022-09-24T06:29:50.230Z,13.90
2022-09-24T06:32:18.798Z,13.90
2022-09-24T06:34:45.867Z,13.90
2022-09-24T06:37:12.882Z,13.90
2022-09-24T06:39:39.866Z,13.90
2022-09-24T06:42:07.199Z,13.90
2022-09-24T06:44:35.277Z,13.90
2022-09-24T06:47:02.345Z,13.90
2022-09-24T06:49:33.877Z,13.90
2022-09-24T06:52:01.950Z,13.90
2022-09-24T06:54:29.035Z,13.90
2022-09-24T06:56:55.986Z,13.90
2022-09-24T06:59:22.933Z,13.90
2022-09-24T07:01:49.949Z,13.90
2022-09-24T07:04:16.939Z,13.90
2022-09-24T07:07:02.695Z,13.90
2022-09-24T07:09:29.630Z,13.90
2022-09-24T07:11:59.013Z,13.90
2022-09-24T07:14:26.026Z,13.90
2022-09-24T07:16:54.013Z,13.90
2022-09-24T07:19:21.040Z,13.90
2022-09-24T07:21:48.021Z,13.90
2022-09-24T07:24:14.996Z,14.00
2022-09-24T07:26:42.050Z,14.00
2022-09-24T07:29:09.159Z,14.00
2022-09-24T07:31:36.597Z,14.00
2022-09-24T07:34:06.348Z,14.00
2022-09-24T07:36:33.313Z,14.00
2022-09-24T07:39:01.290Z,14.10
2022-09-24T07:41:29.852Z,14.10
2022-09-24T07:43:56.880Z,14.10
2022-09-24T07:46:24.843Z,14.20
2022-09-24T07:48:58.674Z,14.20
2022-09-24T07:51:27.587Z,14.20
2022-09-24T07:53:56.231Z,14.30
2022-09-24T07:56:24.315Z,14.40
2022-09-24T07:58:52.655Z,14.40
2022-09-24T08:01:20.539Z,14.50
2022-09-24T08:03:47.899Z,14.50
2022-09-24T08:06:14.925Z,14.60
2022-09-24T08:08:43.441Z,14.70
2022-09-24T08:11:13.394Z,14.70
2022-09-24T08:13:40.706Z,14.80
2022-09-24T08:16:07.752Z,14.90
2022-09-24T08:18:35.227Z,14.90
2022-09-24T08:21:07.291Z,14.90
2022-09-24T08:23:35.526Z,14.90
2022-09-24T08:26:03.142Z,15.00
2022-09-24T08:28:31.406Z,15.00
2022-09-24T08:31:03.864Z,15.10
2022-09-24T08:33:32.645Z,15.10
2022-09-24T08:36:00.527Z,15.20
2022-09-24T08:38:27.560Z,15.20
2022-09-24T08:41:02.891Z,15.20
2022-09-24T08:43:29.872Z,15.20
2022-09-24T08:46:18.694Z,15.20
2022-09-24T08:48:51.580Z,15.30
2022-09-24T08:51:21.048Z,15.30
2022-09-24T08:54:06.843Z,15.30
2022-09-24T08:56:37.751Z,15.40
2022-09-24T08:59:33.228Z,15.40
2022-09-24T09:02:35.288Z,15.40
2022-09-24T09:05:29.745Z,15.50
2022-09-24T09:08:21.551Z,15.50
2022-09-24T09:11:02.257Z,15.50
2022-09-24T09:13:57.933Z,15.50
2022-09-24T09:16:44.656Z,15.60
2022-09-24T09:19:15.646Z,15.60
2022-09-24T09:22:09.943Z,15.70
2022-09-24T09:24:55.994Z,15.70
2022-09-24T09:27:27.227Z,15.80
2022-09-24T09:29:59.771Z,15.80
2022-09-24T09:32:35.770Z,15.90
2022-09-24T09:35:08.208Z,15.90
2022-09-24T09:37:49.454Z,15.90
2022-09-24T09:40:19.216Z,16.00
2022-09-24T09:42:47.334Z,16.10
2022-09-24T09:45:30.399Z,16.20
2022-09-24T09:47:58.142Z,16.20
2022-09-24T09:50:29.547Z,16.30
2022-09-24T09:52:56.677Z,16.40
2022-09-24T09:55:30.036Z,16.40
2022-09-24T09:58:15.371Z,16.50
2022-09-24T10:00:42.907Z,16.50
2022-09-24T10:03:29.258Z,16.50
2022-09-24T10:06:06.375Z,16.50
2022-09-24T10:08:33.803Z,16.50
2022-09-24T10:11:03.346Z,16.60
2022-09-24T10:13:33.480Z,16.60
2022-09-24T10:16:05.854Z,16.60
2022-09-24T10:18:34.559Z,16.70
2022-09-24T10:21:05.137Z,16.80
2022-09-24T10:23:42.455Z,16.80
2022-09-24T10:26:10.432Z,16.80
2022-09-24T10:29:09.325Z,16.90
2022-09-24T10:31:39.307Z,16.90
2022-09-24T10:34:28.630Z,17.10
2022-09-24T10:37:16.718Z,17.20
2022-09-24T10:39:43.713Z,17.30
2022-09-24T10:42:24.742Z,17.30
2022-09-24T10:44:52.965Z,17.40
2022-09-24T10:47:31.821Z,17.40
2022-09-24T10:50:22.379Z,17.50
2022-09-24T10:53:00.967Z,17.60
2022-09-24T10:55:36.127Z,17.60
2022-09-24T10:58:29.178Z,17.70
2022-09-24T11:01:19.388Z,17.70
2022-09-24T11:04:13.698Z,17.80
2022-09-24T11:07:17.355Z,18.00
2022-09-24T11:09:55.741Z,18.00
2022-09-24T11:12:38.045Z,18.10
2022-09-24T11:15:19.419Z,18.10
2022-09-24T11:17:52.302Z,18.10
2022-09-24T11:20:39.538Z,18.10
2022-09-24T11:23:11.916Z,18.10
2022-09-24T11:25:56.928Z,18.20
2022-09-24T11:28:58.404Z,18.40
2022-09-24T11:31:49.302Z,18.50
2022-09-24T11:34:24.761Z,18.80
2022-09-24T11:37:03.652Z,18.90
2022-09-24T11:39:39.214Z,19.00
2022-09-24T11:42:09.257Z,18.90
2022-09-24T11:44:59.593Z,18.80
2022-09-24T11:48:07.363Z,18.70
2022-09-24T11:51:20.911Z,18.50
2022-09-24T11:54:01.503Z,18.40
2022-09-24T11:56:50.642Z,18.20
2022-09-24T11:59:50.022Z,18.00
2022-09-24T12:02:30.979Z,17.90
2022-09-24T12:05:07.578Z,17.80
2022-09-24T12:07:43.597Z,17.60
2022-09-24T12:10:31.518Z,17.50
2022-09-24T12:13:12.670Z,17.40
2022-09-24T12:15:47.358Z,17.30
2022-09-24T12:18:40.323Z,17.20
2022-09-24T12:21:15.548Z,17.10
2022-09-24T12:23:46.322Z,17.10
2022-09-24T12:26:17.255Z,17.00
2022-09-24T12:29:08.135Z,17.00
2022-09-24T12:32:23.089Z,17.00
2022-09-24T12:34:56.161Z,17.00
2022-09-24T12:37:29.754Z,17.00
2022-09-24T12:40:27.071Z,16.90
2022-09-24T12:42:58.356Z,17.00
2022-09-24T12:45:26.377Z,16.90
2022-09-24T12:48:00.061Z,16.90
2022-09-24T12:50:33.802Z,17.00
2022-09-24T12:53:01.085Z,16.90
2022-09-24T12:55:34.512Z,16.90
2022-09-24T12:58:07.509Z,16.90
2022-09-24T13:00:45.854Z,16.90
2022-09-24T13:03:36.091Z,16.90
2022-09-24T13:06:18.666Z,16.90
2022-09-24T13:08:45.703Z,16.80
2022-09-24T13:11:37.511Z,16.90
2022-09-24T13:14:13.437Z,16.90
2022-09-24T13:16:42.970Z,16.90
2022-09-24T13:19:34.219Z,16.90
2022-09-24T13:22:02.395Z,16.90
2022-09-24T13:24:32.799Z,16.90
2022-09-24T13:27:38.027Z,16.90
2022-09-24T13:30:21.651Z,16.90
2022-09-24T13:32:51.390Z,16.90
2022-09-24T13:35:22.519Z,16.90
2022-09-24T13:38:24.183Z,16.80
2022-09-24T13:41:20.249Z,16.80
2022-09-24T13:44:25.591Z,16.70
2022-09-24T13:47:00.143Z,16.70
2022-09-24T13:49:29.726Z,16.60
2022-09-24T13:52:07.912Z,16.60
2022-09-24T13:54:43.835Z,16.60
2022-09-24T13:57:29.839Z,16.50
2022-09-24T14:00:12.634Z,16.50
2022-09-24T14:02:40.228Z,16.50
2022-09-24T14:05:17.592Z,16.40
2022-09-24T14:07:55.041Z,16.50
2022-09-24T14:10:24.994Z,16.50
2022-09-24T14:13:24.848Z,16.50
2022-09-24T14:15:59.546Z,16.50
2022-09-24T14:18:29.242Z,16.50
2022-09-24T14:21:25.164Z,16.50
2022-09-24T14:23:56.928Z,16.50
2022-09-24T14:26:32.852Z,16.50
2022-09-24T14:29:17.630Z,16.50
2022-09-24T14:31:57.162Z,16.50
2022-09-24T14:34:26.743Z,16.60
2022-09-24T14:37:00.181Z,16.60
2022-09-24T14:39:29.325Z,16.60
2022-09-24T14:41:58.066Z,16.60
2022-09-24T14:44:28.922Z,16.60
2022-09-24T14:46:59.085Z,16.60
2022-09-24T14:49:43.976Z,16.60
2022-09-24T14:52:40.514Z,16.60
2022-09-24T14:55:17.711Z,16.60
2022-09-24T14:57:49.058Z,16.60
2022-09-24T15:00:46.533Z,16.60
2022-09-24T15:03:16.453Z,16.60
2022-09-24T15:05:46.178Z,16.60
2022-09-24T15:08:22.379Z,16.60
2022-09-24T15:10:58.477Z,16.60
2022-09-24T15:13:31.179Z,16.70
2022-09-24T15:16:27.637Z,16.70
2022-09-24T15:19:19.978Z,16.70
2022-09-24T15:21:48.633Z,16.80
2022-09-24T15:24:16.838Z,16.80
2022-09-24T15:26:47.096Z,16.80
2022-09-24T15:29:24.264Z,16.80
2022-09-24T15:31:52.521Z,16.80
2022-09-24T15:34:20.540Z,16.80
2022-09-24T15:36:49.542Z,16.80
2022-09-24T15:39:19.837Z,16.80
2022-09-24T15:41:46.973Z,16.80
2022-09-24T15:44:34.150Z,16.80
2022-09-24T15:47:03.192Z,16.70
2022-09-24T15:49:30.112Z,16.70
2022-09-24T15:52:09.030Z,16.60
2022-09-24T15:54:36.292Z,16.60
2022-09-24T15:57:03.545Z,16.60
2022-09-24T15:59:30.818Z,16.60
2022-09-24T16:02:02.312Z,16.50
2022-09-24T16:04:29.656Z,16.50
2022-09-24T16:06:56.556Z,16.40
2022-09-24T16:09:23.555Z,16.40
2022-09-24T16:11:50.504Z,16.40
2022-09-24T16:14:17.382Z,16.40
2022-09-24T16:16:44.388Z,16.40
2022-09-24T16:19:12.537Z,16.30
2022-09-24T16:21:39.641Z,16.30
2022-09-24T16:24:06.889Z,16.30
2022-09-24T16:26:35.557Z,16.20
2022-09-24T16:29:03.680Z,16.20
2022-09-24T16:31:31.010Z,16.10
2022-09-24T16:33:58.018Z,16.10
2022-09-24T16:36:25.024Z,16.10
2022-09-24T16:38:52.040Z,16.00
2022-09-24T16:41:18.970Z,16.00
2022-09-24T16:43:45.903Z,16.00
2022-09-24T16:46:17.877Z,15.90
2022-09-24T16:48:49.806Z,15.90
2022-09-24T16:51:17.431Z,15.90
2022-09-24T16:53:48.733Z,15.90
2022-09-24T16:56:17.852Z,15.90
2022-09-24T16:58:46.543Z,15.80
2022-09-24T17:01:18.694Z,15.80
2022-09-24T17:03:54.270Z,15.70
2022-09-24T17:06:31.216Z,15.80
2022-09-24T17:09:16.789Z,15.70
2022-09-24T17:11:46.721Z,15.60
2022-09-24T17:14:14.769Z,15.60
2022-09-24T17:16:42.652Z,15.60
2022-09-24T17:19:11.302Z,15.60
2022-09-24T17:21:40.814Z,15.50
2022-09-24T17:24:08.079Z,15.50
2022-09-24T17:26:35.632Z,15.50
2022-09-24T17:29:02.724Z,15.50
2022-09-24T17:31:29.887Z,15.40
2022-09-24T17:34:02.444Z,15.40
2022-09-24T17:36:31.076Z,15.40
2022-09-24T17:38:59.330Z,15.40
2022-09-24T17:41:27.970Z,15.30
2022-09-24T17:43:59.668Z,15.30
2022-09-24T17:46:31.595Z,15.40
2022-09-24T17:49:00.263Z,15.30
2022-09-24T17:51:32.635Z,15.30
2022-09-24T17:54:02.093Z,15.20
2022-09-24T17:56:32.033Z,15.20
2022-09-24T17:58:59.772Z,15.10
2022-09-24T18:01:35.998Z,15.10
2022-09-24T18:04:06.053Z,15.10
2022-09-24T18:06:36.033Z,15.00
2022-09-24T18:09:03.886Z,14.90
2022-09-24T18:11:33.959Z,14.90
2022-09-24T18:14:02.637Z,14.90
2022-09-24T18:16:33.844Z,14.80
2022-09-24T18:19:02.376Z,14.80
2022-09-24T18:21:30.565Z,14.70
2022-09-24T18:23:59.632Z,14.70
2022-09-24T18:26:37.366Z,14.60
2022-09-24T18:29:16.423Z,14.60
2022-09-24T18:31:44.685Z,14.50
2022-09-24T18:34:15.092Z,14.50
2022-09-24T18:36:44.361Z,14.50
2022-09-24T18:39:13.753Z,14.40
2022-09-24T18:41:41.843Z,14.40
2022-09-24T18:44:10.473Z,14.30
2022-09-24T18:46:37.781Z,14.20
2022-09-24T18:49:06.433Z,14.20
2022-09-24T18:51:35.807Z,14.20
2022-09-24T18:54:08.621Z,14.10
2022-09-24T18:56:36.432Z,14.10
2022-09-24T18:59:12.591Z,14.00
2022-09-24T19:01:40.597Z,14.00
2022-09-24T19:04:11.553Z,14.00
2022-09-24T19:06:40.655Z,13.90
2022-09-24T19:09:08.125Z,13.90
2022-09-24T19:11:36.084Z,13.90
2022-09-24T19:14:03.602Z,13.90
2022-09-24T19:16:30.902Z,13.80
2022-09-24T19:18:59.792Z,13.80
2022-09-24T19:21:27.460Z,13.70
2022-09-24T19:23:56.534Z,13.60
2022-09-24T19:26:35.410Z,13.60
2022-09-24T19:29:03.284Z,13.60
2022-09-24T19:31:33.115Z,13.50
2022-09-24T19:34:03.945Z,13.50
2022-09-24T19:36:36.253Z,13.40
2022-09-24T19:39:05.900Z,13.40
2022-09-24T19:41:32.836Z,13.40
2022-09-24T19:44:07.543Z,13.30
2022-09-24T19:46:37.207Z,13.20
2022-09-24T19:49:05.034Z,13.30
2022-09-24T19:51:33.837Z,13.20
2022-09-24T19:54:03.985Z,13.20
2022-09-24T19:56:31.939Z,13.20
2022-09-24T19:59:00.439Z,13.10
2022-09-24T20:01:30.141Z,13.10
2022-09-24T20:03:59.003Z,13.10
2022-09-24T20:06:29.047Z,13.10
2022-09-24T20:08:57.437Z,13.00
2022-09-24T20:11:25.838Z,13.00
2022-09-24T20:13:55.335Z,13.00
2022-09-24T20:16:26.363Z,12.90
2022-09-24T20:18:57.741Z,12.90
2022-09-24T20:21:27.775Z,12.90
2022-09-24T20:23:57.057Z,12.90
2022-09-24T20:26:43.687Z,12.90
2022-09-24T20:29:12.263Z,12.90
2022-09-24T20:31:52.042Z,12.80
2022-09-24T20:34:21.397Z,12.80
2022-09-24T20:36:49.031Z,12.70
2022-09-24T20:39:16.247Z,12.70
2022-09-24T20:41:43.232Z,12.70
2022-09-24T20:44:10.377Z,12.70
2022-09-24T20:46:37.429Z,12.70
2022-09-24T20:49:04.919Z,12.60
2022-09-24T20:51:34.998Z,12.60
2022-09-24T20:54:02.206Z,12.60
2022-09-24T20:56:30.723Z,12.60
2022-09-24T20:58:58.684Z,12.60
2022-09-24T21:01:25.827Z,12.50
2022-09-24T21:03:53.144Z,12.50
2022-09-24T21:06:23.032Z,12.50
2022-09-24T21:08:51.054Z,12.50
2022-09-24T21:11:20.549Z,12.50
2022-09-24T21:13:50.956Z,12.40
2022-09-24T21:16:23.915Z,12.50
2022-09-24T21:18:54.476Z,12.50
2022-09-24T21:21:23.901Z,12.40
2022-09-24T21:23:53.364Z,12.40
2022-09-24T21:26:23.043Z,12.40
2022-09-24T21:28:52.637Z,12.40
2022-09-24T21:31:22.166Z,12.40
2022-09-24T21:33:54.439Z,12.40
2022-09-24T21:36:30.270Z,12.40
2022-09-24T21:38:59.497Z,12.40
2022-09-24T21:41:31.480Z,12.30
2022-09-24T21:43:58.920Z,12.30
2022-09-24T21:46:28.376Z,12.30
2022-09-24T21:48:55.973Z,12.30
2022-09-24T21:51:25.521Z,12.20
2022-09-24T21:53:55.193Z,12.20
2022-09-24T21:56:22.138Z,12.20
2022-09-24T21:58:50.470Z,12.20
2022-09-24T22:01:27.150Z,12.20
2022-09-24T22:03:57.640Z,12.20
2022-09-24T22:06:29.053Z,12.10
2022-09-24T22:09:05.391Z,12.10
2022-09-24T22:11:33.944Z,12.10
2022-09-24T22:14:01.335Z,12.10
2022-09-24T22:16:34.163Z,12.00
2022-09-24T22:19:03.637Z,12.00
2022-09-24T22:21:31.476Z,12.00
2022-09-24T22:23:58.669Z,12.00
2022-09-24T22:26:32.035Z,12.00
2022-09-24T22:29:00.021Z,11.90
2022-09-24T22:31:27.371Z,11.90
2022-09-24T22:34:13.286Z,11.90
2022-09-24T22:36:40.697Z,11.90
2022-09-24T22:39:08.371Z,11.90
2022-09-24T22:41:38.480Z,11.90
2022-09-24T22:44:06.588Z,11.90
2022-09-24T22:46:36.120Z,11.90
2022-09-24T22:49:04.696Z,11.90
2022-09-24T22:51:32.029Z,11.90
2022-09-24T22:54:00.206Z,11.90
2022-09-24T22:56:28.090Z,11.90
2022-09-24T22:59:00.570Z,11.80
2022-09-24T23:01:33.907Z,11.80
2022-09-24T23:04:02.078Z,11.80
2022-09-24T23:06:30.417Z,11.70
2022-09-24T23:08:57.666Z,11.70
2022-09-24T23:11:27.602Z,11.70
2022-09-24T23:13:58.188Z,11.70
2022-09-24T23:16:27.915Z,11.70
2022-09-24T23:18:57.174Z,11.60
2022-09-24T23:21:26.084Z,11.60
2022-09-24T23:23:58.021Z,11.60
2022-09-24T23:26:26.083Z,11.50
2022-09-24T23:28:55.090Z,11.50
2022-09-24T23:31:27.961Z,11.50
2022-09-24T23:33:56.600Z,11.50
2022-09-24T23:36:24.769Z,11.50
2022-09-24T23:38:54.035Z,11.60
2022-09-24T23:41:21.796Z,11.50
2022-09-24T23:43:49.369Z,11.50
2022-09-24T23:46:16.941Z,11.50
2022-09-24T23:48:44.383Z,11.50
2022-09-24T23:51:11.362Z,11.50
2022-09-24T23:53:39.517Z,11.50
2022-09-24T23:56:07.945Z,11.40
2022-09-24T23:58:35.557Z,11.40
